Time;durP1;ratioP1;P1;durP2;ratioP2;P2;SDS_P1;SDS_P2;PMS_P1;PMS_P2;Temp;Humidity;BMP_temperature;BMP_pressure;BME280_temperature;BME280_humidity;BME280_pressure;Samples;Min_cycle;Max_cycle;Signal;HPM_P1;HPM_P2
2022/09/21 00:01:07;;;;;;;8.18;2.95;;;10.10;99.90;;;;;;5071149;28;20051;-67
2022/09/21 00:03:34;;;;;;;5.00;2.83;;;10.10;99.90;;;;;;5072445;28;20027;-68
2022/09/21 00:06:05;;;;;;;15.63;3.53;;;10.00;99.90;;;;;;5072162;28;20048;-67
2022/09/21 00:08:31;;;;;;;6.85;3.15;;;10.10;99.90;;;;;;5070926;28;20090;-67
2022/09/21 00:10:56;;;;;;;4.43;2.70;;;10.10;99.90;;;;;;5072344;28;20028;-67
2022/09/21 00:13:23;;;;;;;8.10;3.38;;;10.10;99.90;;;;;;5071095;28;20028;-68
2022/09/21 00:15:49;;;;;;;5.35;3.17;;;10.10;99.90;;;;;;5071972;28;20028;-65
2022/09/21 00:18:15;;;;;;;3.88;2.53;;;10.10;99.90;;;;;;5072590;28;20397;-67
2022/09/21 00:20:44;;;;;;;6.90;2.88;;;10.00;99.90;;;;;;5071384;28;20017;-67
2022/09/21 00:23:10;;;;;;;6.93;2.80;;;10.10;99.90;;;;;;5072071;28;20104;-67
2022/09/21 00:25:35;;;;;;;4.32;2.65;;;9.90;99.90;;;;;;5069832;28;20547;-67
2022/09/21 00:28:01;;;;;;;6.57;3.42;;;9.90;99.90;;;;;;5052716;28;20106;-67
2022/09/21 00:30:27;;;;;;;6.60;3.70;;;10.00;99.90;;;;;;5064628;28;20146;-67
2022/09/21 00:32:53;;;;;;;7.38;3.63;;;9.90;99.90;;;;;;5071771;28;20024;-67
2022/09/21 00:35:19;;;;;;;6.38;3.08;;;9.90;99.90;;;;;;5064266;28;20048;-67
2022/09/21 00:37:45;;;;;;;5.97;3.08;;;9.80;99.90;;;;;;5071536;28;20533;-66
2022/09/21 00:40:11;;;;;;;5.20;3.10;;;9.80;99.90;;;;;;5071503;28;20025;-67
2022/09/21 00:42:38;;;;;;;6.50;3.08;;;9.80;99.90;;;;;;5071765;28;20040;-67
2022/09/21 00:45:05;;;;;;;6.28;2.88;;;9.80;99.90;;;;;;5070357;28;20071;-67
2022/09/21 00:47:39;;;;;;;8.35;3.53;;;9.80;99.90;;;;;;5070506;28;20059;-66
2022/09/21 00:50:10;;;;;;;6.90;3.42;;;9.80;99.90;;;;;;5066187;28;20074;-67
2022/09/21 00:52:43;;;;;;;6.72;2.58;;;9.70;99.90;;;;;;5068742;28;20033;-67
2022/09/21 00:55:21;;;;;;;9.93;2.97;;;9.70;99.90;;;;;;5070962;28;20112;-67
2022/09/21 00:57:51;;;;;;;4.75;2.40;;;9.60;99.90;;;;;;5070296;28;20031;-66
2022/09/21 01:00:17;;;;;;;5.07;2.75;;;9.60;99.90;;;;;;5069468;28;20037;-67
2022/09/21 01:02:44;;;;;;;4.90;2.80;;;9.50;99.90;;;;;;5082023;28;20027;-68
2022/09/21 01:05:11;;;;;;;7.82;2.83;;;9.50;99.90;;;;;;5072151;28;20036;-67
2022/09/21 01:07:42;;;;;;;4.40;2.55;;;9.50;99.90;;;;;;5070399;28;20048;-66
2022/09/21 01:10:15;;;;;;;4.00;2.53;;;9.40;99.90;;;;;;5069835;28;20016;-66
2022/09/21 01:12:59;;;;;;;5.15;2.85;;;9.40;99.90;;;;;;5066872;28;20091;-67
2022/09/21 01:15:57;;;;;;;6.22;2.30;;;9.40;99.90;;;;;;5069454;28;20112;-68
2022/09/21 01:18:40;;;;;;;3.88;2.53;;;9.40;99.90;;;;;;5066143;28;20475;-68
2022/09/21 01:21:21;;;;;;;3.15;2.63;;;9.40;99.90;;;;;;5067297;28;20773;-67
2022/09/21 01:24:26;;;;;;;4.05;2.55;;;9.40;99.90;;;;;;5069585;28;20461;-68
2022/09/21 01:27:06;;;;;;;4.05;2.50;;;9.30;99.90;;;;;;5074302;28;20037;-67
2022/09/21 01:29:51;;;;;;;5.22;2.67;;;9.30;99.90;;;;;;5074426;28;20467;-66
2022/09/21 01:32:29;;;;;;;5.53;2.42;;;9.30;99.90;;;;;;5072800;28;20028;-66
2022/09/21 01:35:06;;;;;;;6.10;2.60;;;9.30;99.90;;;;;;5071568;28;20118;-66
2022/09/21 01:37:35;;;;;;;4.30;2.78;;;9.30;99.90;;;;;;5061896;28;20039;-67
2022/09/21 01:40:07;;;;;;;8.15;2.63;;;9.30;99.90;;;;;;5069473;28;20032;-67
2022/09/21 01:42:34;;;;;;;5.57;2.78;;;9.30;99.90;;;;;;5053068;28;20029;-68
2022/09/21 01:45:03;;;;;;;5.40;2.70;;;9.30;99.90;;;;;;5070974;28;20032;-66
2022/09/21 01:47:30;;;;;;;4.47;2.60;;;9.30;99.90;;;;;;5068522;28;20123;-66
2022/09/21 01:50:00;;;;;;;4.32;2.60;;;9.30;99.90;;;;;;5064950;28;20044;-66
2022/09/21 01:52:41;;;;;;;4.47;2.90;;;9.30;99.90;;;;;;5065853;28;20470;-65
2022/09/21 01:55:28;;;;;;;3.58;2.17;;;9.30;99.90;;;;;;5065513;28;20102;-66
2022/09/21 01:58:16;;;;;;;4.93;2.90;;;9.30;99.90;;;;;;5065812;28;20266;-68
2022/09/21 02:00:47;;;;;;;8.10;3.42;;;9.30;99.90;;;;;;5064855;28;20028;-67
2022/09/21 02:03:35;;;;;;;5.15;2.70;;;9.30;99.90;;;;;;5068705;28;20530;-67
2022/09/21 02:06:03;;;;;;;5.45;2.75;;;9.30;99.90;;;;;;5068000;28;20482;-65
2022/09/21 02:08:32;;;;;;;3.17;2.33;;;9.20;99.90;;;;;;5067349;28;20368;-66
2022/09/21 02:11:01;;;;;;;5.10;2.47;;;9.20;99.90;;;;;;5068458;28;20044;-67
2022/09/21 02:13:41;;;;;;;6.47;2.95;;;9.20;99.90;;;;;;5068183;28;20017;-65
2022/09/21 02:16:07;;;;;;;4.47;2.75;;;9.20;99.90;;;;;;5068443;28;20676;-66
2022/09/21 02:18:49;;;;;;;5.63;3.22;;;9.20;99.90;;;;;;5068296;28;20023;-68
2022/09/21 02:21:50;;;;;;;5.78;2.72;;;9.20;99.90;;;;;;5068180;28;20040;-67
2022/09/21 02:24:36;;;;;;;5.75;3.17;;;9.20;99.90;;;;;;5067363;28;20025;-66
2022/09/21 02:27:24;;;;;;;6.25;2.88;;;9.20;99.90;;;;;;5064580;28;20059;-67
2022/09/21 02:30:08;;;;;;;4.40;2.85;;;9.20;99.90;;;;;;5065775;28;20053;-67
2022/09/21 02:32:49;;;;;;;6.57;3.08;;;9.20;99.90;;;;;;5068719;28;20096;-66
2022/09/21 02:35:45;;;;;;;6.07;2.63;;;9.20;99.90;;;;;;5067931;28;20126;-66
2022/09/21 02:38:19;;;;;;;3.50;2.40;;;9.10;99.90;;;;;;5068507;28;20532;-67
2022/09/21 02:41:13;;;;;;;5.78;3.13;;;9.10;99.90;;;;;;5068484;28;20120;-67
2022/09/21 02:43:57;;;;;;;5.57;2.60;;;9.10;99.90;;;;;;5067644;28;20032;-66
2022/09/21 02:46:42;;;;;;;4.63;2.67;;;9.00;99.90;;;;;;5033742;28;20037;-67
2022/09/21 02:49:14;;;;;;;7.07;3.10;;;9.00;99.90;;;;;;5067318;28;20037;-67
2022/09/21 02:51:46;;;;;;;3.70;2.30;;;9.00;99.90;;;;;;5050281;28;20043;-67
2022/09/21 02:54:15;;;;;;;6.00;2.53;;;9.00;99.90;;;;;;5068436;28;20386;-66
2022/09/21 02:56:42;;;;;;;2.88;2.25;;;9.00;99.90;;;;;;5068195;28;20523;-67
2022/09/21 02:59:09;;;;;;;3.53;2.20;;;9.00;99.90;;;;;;5068136;28;20178;-66
2022/09/21 03:01:38;;;;;;;3.90;2.50;;;9.00;99.90;;;;;;5067842;28;20077;-67
2022/09/21 03:04:04;;;;;;;6.03;3.45;;;9.00;99.90;;;;;;5067473;28;20036;-67
2022/09/21 03:06:30;;;;;;;5.72;2.80;;;9.00;99.90;;;;;;5066628;28;20040;-67
2022/09/21 03:08:57;;;;;;;4.57;2.80;;;9.00;99.90;;;;;;5067620;28;20040;-66
2022/09/21 03:11:23;;;;;;;6.20;2.78;;;9.00;99.90;;;;;;5067974;28;20016;-67
2022/09/21 03:13:49;;;;;;;4.82;2.95;;;9.10;99.90;;;;;;5068304;28;20031;-65
2022/09/21 03:16:15;;;;;;;5.20;2.90;;;9.10;99.90;;;;;;5066734;28;20375;-66
2022/09/21 03:18:42;;;;;;;5.82;2.70;;;9.20;99.90;;;;;;5068652;28;20044;-67
2022/09/21 03:21:11;;;;;;;3.72;2.63;;;9.20;99.90;;;;;;5068903;28;20020;-66
2022/09/21 03:23:38;;;;;;;4.97;3.05;;;9.30;99.90;;;;;;5072057;28;20741;-67
2022/09/21 03:26:04;;;;;;;3.95;2.55;;;9.30;99.90;;;;;;5071718;28;20016;-66
2022/09/21 03:28:30;;;;;;;5.35;2.50;;;9.40;99.90;;;;;;5068188;28;20024;-67
2022/09/21 03:30:56;;;;;;;4.38;2.53;;;9.50;99.90;;;;;;5071419;28;20417;-68
2022/09/21 03:33:24;;;;;;;5.45;2.80;;;9.50;99.90;;;;;;5071887;28;20113;-66
2022/09/21 03:35:50;;;;;;;4.55;2.42;;;9.50;99.90;;;;;;5071374;28;20036;-66
2022/09/21 03:38:17;;;;;;;6.40;3.45;;;9.60;99.90;;;;;;5070090;28;20029;-68
2022/09/21 03:40:47;;;;;;;3.92;2.30;;;9.60;99.90;;;;;;5071826;28;20052;-68
2022/09/21 03:43:14;;;;;;;5.65;2.15;;;9.60;99.90;;;;;;5072925;28;20382;-68
2022/09/21 03:45:41;;;;;;;3.85;1.98;;;9.70;99.90;;;;;;5072173;28;20031;-67
2022/09/21 03:48:08;;;;;;;4.40;2.40;;;9.70;99.90;;;;;;5072717;28;20570;-68
2022/09/21 03:50:34;;;;;;;4.25;2.55;;;9.70;99.90;;;;;;5072944;28;20025;-67
2022/09/21 03:53:00;;;;;;;5.43;2.70;;;9.70;99.90;;;;;;5071658;28;20393;-68
2022/09/21 03:55:26;;;;;;;6.90;2.38;;;9.70;99.90;;;;;;5055077;28;20021;-68
2022/09/21 03:57:52;;;;;;;4.22;2.53;;;9.70;99.90;;;;;;5072007;28;20033;-67
2022/09/21 04:00:19;;;;;;;3.25;2.20;;;9.70;99.90;;;;;;5054486;28;20052;-69
2022/09/21 04:02:45;;;;;;;5.72;2.25;;;9.70;99.90;;;;;;5071466;28;20029;-68
2022/09/21 04:05:13;;;;;;;3.40;2.00;;;9.70;99.90;;;;;;5059580;28;20021;-67
2022/09/21 04:07:41;;;;;;;5.80;2.88;;;9.60;99.90;;;;;;5063687;28;20541;-68
2022/09/21 04:10:12;;;;;;;6.13;2.63;;;9.60;99.90;;;;;;5071180;28;20052;-68
2022/09/21 04:12:43;;;;;;;4.40;2.28;;;9.60;99.90;;;;;;5072550;28;20391;-68
2022/09/21 04:15:14;;;;;;;2.58;1.90;;;9.60;99.90;;;;;;5070791;28;20032;-67
2022/09/21 04:17:40;;;;;;;6.53;2.38;;;9.60;99.90;;;;;;5060870;28;20064;-66
2022/09/21 04:20:07;;;;;;;3.17;2.13;;;9.60;99.90;;;;;;5067260;28;20471;-67
2022/09/21 04:22:35;;;;;;;6.70;2.83;;;9.60;99.90;;;;;;5071202;28;20031;-67
2022/09/21 04:25:04;;;;;;;3.83;2.38;;;9.60;99.90;;;;;;5070598;28;20033;-66
2022/09/21 04:27:31;;;;;;;5.25;2.65;;;9.70;99.90;;;;;;5068827;28;20043;-67
2022/09/21 04:29:58;;;;;;;5.75;2.58;;;9.70;99.90;;;;;;5060043;28;20021;-66
2022/09/21 04:32:23;;;;;;;3.35;2.03;;;9.70;99.90;;;;;;5070632;28;20127;-67
2022/09/21 04:34:50;;;;;;;7.47;2.95;;;9.70;99.90;;;;;;5071380;28;20170;-68
2022/09/21 04:37:16;;;;;;;3.58;2.10;;;9.70;99.90;;;;;;5071418;28;20043;-68
2022/09/21 04:39:42;;;;;;;5.15;2.40;;;9.70;99.90;;;;;;5070424;28;20029;-68
2022/09/21 04:42:08;;;;;;;2.78;1.98;;;9.70;99.90;;;;;;5071055;28;20047;-68
2022/09/21 04:44:34;;;;;;;4.57;2.20;;;9.70;99.90;;;;;;5071112;28;20032;-68
2022/09/21 04:47:00;;;;;;;3.65;2.30;;;9.80;99.90;;;;;;5062439;28;20033;-68
2022/09/21 04:49:26;;;;;;;2.95;1.92;;;9.80;99.90;;;;;;5062718;28;20028;-68
2022/09/21 04:51:52;;;;;;;3.53;2.15;;;9.80;99.90;;;;;;5070600;28;20027;-68
2022/09/21 04:54:18;;;;;;;4.38;2.33;;;9.90;99.90;;;;;;5060920;28;20482;-67
2022/09/21 04:56:44;;;;;;;4.60;2.55;;;9.80;99.90;;;;;;5070699;28;20024;-68
2022/09/21 04:59:09;;;;;;;3.42;2.13;;;9.90;99.90;;;;;;5070602;28;20110;-68
2022/09/21 05:01:35;;;;;;;4.45;2.30;;;9.90;99.90;;;;;;5069955;28;20028;-68
2022/09/21 05:04:01;;;;;;;4.05;1.92;;;9.90;99.90;;;;;;5070279;28;20082;-68
2022/09/21 05:06:31;;;;;;;4.00;2.38;;;10.00;99.90;;;;;;5069139;28;20056;-67
2022/09/21 05:11:42;;;;;;;7.00;2.10;;;10.00;99.90;;;;;;5068233;28;20109;-67
2022/09/21 05:14:09;;;;;;;6.65;2.17;;;10.00;99.90;;;;;;5069583;28;20033;-68
2022/09/21 05:16:35;;;;;;;6.35;2.53;;;10.00;99.90;;;;;;5057036;28;20423;-68
2022/09/21 05:19:01;;;;;;;3.60;2.10;;;10.00;99.90;;;;;;5070481;28;20020;-66
2022/09/21 05:21:27;;;;;;;4.88;2.45;;;10.10;99.90;;;;;;5069078;28;20099;-68
2022/09/21 05:23:53;;;;;;;3.50;2.05;;;10.10;99.90;;;;;;5069784;28;20026;-68
2022/09/21 05:26:19;;;;;;;3.00;1.73;;;10.10;99.90;;;;;;5071041;28;20024;-68
2022/09/21 05:28:45;;;;;;;5.15;2.15;;;10.10;99.90;;;;;;5070347;28;20036;-67
2022/09/21 05:31:16;;;;;;;2.78;2.05;;;10.10;99.90;;;;;;5069142;28;20028;-68
2022/09/21 05:34:11;;;;;;;5.07;1.98;;;10.20;99.90;;;;;;5065025;28;20048;-65
2022/09/21 05:36:44;;;;;;;3.40;1.90;;;10.20;99.90;;;;;;4978518;28;20046;-68
2022/09/21 05:39:10;;;;;;;4.15;2.03;;;10.20;99.90;;;;;;4987905;28;20046;-68
2022/09/21 05:41:37;;;;;;;5.18;2.60;;;10.30;99.90;;;;;;4987989;28;20436;-67
2022/09/21 05:44:03;;;;;;;5.80;2.35;;;10.30;99.90;;;;;;4981384;28;20433;-68
2022/09/21 05:46:28;;;;;;;2.75;2.05;;;10.30;99.90;;;;;;4979225;28;20038;-68
2022/09/21 05:49:41;;;;;;;3.58;1.98;;;10.30;99.90;;;;;;4978685;28;20050;-68
2022/09/21 05:52:39;;;;;;;4.55;2.15;;;10.40;99.90;;;;;;4915087;29;20047;-68
2022/09/21 05:55:38;;;;;;;3.28;1.85;;;10.50;99.90;;;;;;4836462;29;20397;-68
2022/09/21 05:58:25;;;;;;;3.50;2.28;;;10.50;99.90;;;;;;4827470;29;20838;-68
2022/09/21 06:00:53;;;;;;;6.18;2.72;;;10.50;99.90;;;;;;4837231;29;20501;-68
2022/09/21 06:03:30;;;;;;;3.03;1.98;;;10.50;99.90;;;;;;4837070;29;20038;-68
2022/09/21 06:05:57;;;;;;;2.95;2.15;;;10.60;99.90;;;;;;4834922;29;20146;-68
2022/09/21 06:08:24;;;;;;;4.65;2.50;;;10.70;99.90;;;;;;4836424;29;20081;-68
2022/09/21 06:10:50;;;;;;;7.28;2.65;;;10.80;99.90;;;;;;4836132;29;20102;-67
2022/09/21 06:13:16;;;;;;;6.07;2.45;;;10.90;99.90;;;;;;4868848;29;20055;-65
2022/09/21 06:15:42;;;;;;;3.20;1.83;;;10.90;99.90;;;;;;4922309;29;20044;-69
2022/09/21 06:18:09;;;;;;;7.13;2.35;;;10.90;99.90;;;;;;4912196;29;20184;-68
2022/09/21 06:20:35;;;;;;;9.23;3.33;;;11.00;99.90;;;;;;4911461;29;20032;-68
2022/09/21 06:23:07;;;;;;;3.55;2.03;;;11.20;99.90;;;;;;4922588;29;20040;-68
2022/09/21 06:25:33;;;;;;;5.43;2.00;;;11.20;99.90;;;;;;4911627;29;20472;-69
2022/09/21 06:28:07;;;;;;;4.78;2.15;;;11.30;99.90;;;;;;4910285;29;20064;-68
2022/09/21 06:30:33;;;;;;;6.25;2.55;;;11.30;99.90;;;;;;5019643;28;20036;-69
2022/09/21 06:33:00;;;;;;;3.70;2.10;;;11.30;99.90;;;;;;5050299;28;20029;-67
2022/09/21 06:35:27;;;;;;;5.00;2.33;;;11.30;99.90;;;;;;5068386;28;21385;-68
2022/09/21 06:38:01;;;;;;;4.28;2.85;;;11.20;99.90;;;;;;5069350;28;20104;-68
2022/09/21 06:40:28;;;;;;;5.15;2.72;;;11.20;99.90;;;;;;5066856;28;20032;-67
2022/09/21 06:42:58;;;;;;;5.38;3.03;;;11.30;99.90;;;;;;5068919;28;20099;-68
2022/09/21 06:45:29;;;;;;;4.35;2.88;;;11.30;99.90;;;;;;5068910;28;20038;-69
2022/09/21 06:47:55;;;;;;;4.25;2.50;;;11.20;99.90;;;;;;5069185;28;20038;-68
2022/09/21 06:50:21;;;;;;;6.47;2.67;;;11.30;99.90;;;;;;5069146;28;20146;-68
2022/09/21 06:52:47;;;;;;;5.35;2.70;;;11.30;99.90;;;;;;5068600;28;20040;-68
2022/09/21 06:55:14;;;;;;;4.78;2.17;;;11.20;99.90;;;;;;5064744;28;20032;-69
2022/09/21 06:57:39;;;;;;;5.90;2.20;;;11.30;99.90;;;;;;5073175;28;20028;-65
2022/09/21 07:00:08;;;;;;;3.53;2.35;;;11.30;99.90;;;;;;5053795;28;20083;-69
2022/09/21 07:02:34;;;;;;;4.25;2.25;;;11.30;99.90;;;;;;5056176;28;20029;-68
2022/09/21 07:05:01;;;;;;;5.68;3.03;;;11.40;99.90;;;;;;5048711;28;20021;-68
2022/09/21 07:07:30;;;;;;;5.95;2.90;;;11.40;99.90;;;;;;5058949;28;20041;-67
2022/09/21 07:09:58;;;;;;;4.38;2.10;;;11.40;99.90;;;;;;5069045;28;20034;-68
2022/09/21 07:12:25;;;;;;;2.80;2.00;;;11.40;99.90;;;;;;5067003;28;20028;-69
2022/09/21 07:14:51;;;;;;;6.95;3.10;;;11.40;99.90;;;;;;5068876;28;20021;-68
2022/09/21 07:17:17;;;;;;;4.68;2.67;;;11.50;99.90;;;;;;5068410;28;20471;-68
2022/09/21 07:19:42;;;;;;;5.88;2.80;;;11.40;99.90;;;;;;5066206;28;20082;-68
2022/09/21 07:22:08;;;;;;;4.43;2.20;;;11.50;99.90;;;;;;5068923;28;20051;-68
2022/09/21 07:24:34;;;;;;;5.68;2.65;;;11.50;99.90;;;;;;5068543;28;20081;-68
2022/09/21 07:27:00;;;;;;;6.00;2.88;;;11.40;99.90;;;;;;5069281;28;20078;-67
2022/09/21 07:29:26;;;;;;;6.80;1.85;;;11.50;99.90;;;;;;5068488;28;20407;-67
2022/09/21 07:31:51;;;;;;;5.60;3.22;;;11.40;99.90;;;;;;5068492;28;20756;-68
2022/09/21 07:34:17;;;;;;;6.18;2.67;;;11.50;99.90;;;;;;5066816;28;20063;-69
2022/09/21 07:36:43;;;;;;;3.38;2.58;;;11.60;99.90;;;;;;5083446;28;20410;-69
2022/09/21 07:39:09;;;;;;;8.93;3.13;;;11.70;99.90;;;;;;5059270;28;20107;-69
2022/09/21 07:41:36;;;;;;;6.35;2.80;;;11.80;99.90;;;;;;5068464;28;20111;-68
2022/09/21 07:44:03;;;;;;;7.43;3.03;;;11.90;99.90;;;;;;5051008;28;20093;-69
2022/09/21 07:46:28;;;;;;;5.15;2.75;;;11.90;99.90;;;;;;5072273;28;20826;-67
2022/09/21 07:48:55;;;;;;;11.80;3.25;;;11.90;99.90;;;;;;5068133;28;20118;-67
2022/09/21 07:51:22;;;;;;;6.45;3.13;;;12.00;99.90;;;;;;5069718;28;20040;-69
2022/09/21 07:53:57;;;;;;;4.82;2.80;;;12.00;99.90;;;;;;5069105;28;20032;-68
2022/09/21 07:56:23;;;;;;;6.03;3.03;;;12.10;99.90;;;;;;5051101;28;20111;-67
2022/09/21 07:59:07;;;;;;;6.90;2.50;;;12.30;99.90;;;;;;5068897;28;20066;-68
2022/09/21 08:01:39;;;;;;;6.43;3.50;;;12.30;99.90;;;;;;5078228;28;20119;-69
2022/09/21 08:04:07;;;;;;;5.55;3.33;;;12.30;99.90;;;;;;5067844;28;20060;-68
2022/09/21 08:06:34;;;;;;;7.25;4.03;;;12.30;99.90;;;;;;5051249;28;20052;-68
2022/09/21 08:09:02;;;;;;;5.05;3.05;;;12.30;99.90;;;;;;5071843;28;20091;-69
2022/09/21 08:11:29;;;;;;;11.30;4.15;;;12.40;99.90;;;;;;5072970;28;20430;-69
2022/09/21 08:14:00;;;;;;;5.78;3.30;;;12.60;99.90;;;;;;5072035;28;20032;-67
2022/09/21 08:16:27;;;;;;;8.02;3.60;;;12.80;99.90;;;;;;5071570;28;20075;-69
2022/09/21 08:18:54;;;;;;;8.38;3.45;;;12.90;99.90;;;;;;5072148;28;20374;-68
2022/09/21 08:21:20;;;;;;;7.95;3.58;;;13.10;99.90;;;;;;5073250;28;20028;-68
2022/09/21 08:23:48;;;;;;;4.35;3.05;;;13.00;99.90;;;;;;5071727;28;20374;-69
2022/09/21 08:26:18;;;;;;;4.97;3.22;;;13.00;99.90;;;;;;5071969;28;20032;-68
2022/09/21 08:28:48;;;;;;;4.85;2.92;;;12.90;99.90;;;;;;5071548;28;20645;-69
2022/09/21 08:31:17;;;;;;;4.20;3.08;;;13.00;99.90;;;;;;5070434;28;20178;-67
2022/09/21 08:33:43;;;;;;;6.35;3.45;;;12.80;99.90;;;;;;5072230;28;20394;-69
2022/09/21 08:36:09;;;;;;;3.97;2.53;;;12.80;99.90;;;;;;5071210;28;20028;-69
2022/09/21 08:38:37;;;;;;;4.28;3.00;;;12.70;99.90;;;;;;5072338;28;20108;-69
2022/09/21 08:41:15;;;;;;;5.13;3.25;;;12.70;99.90;;;;;;5076073;28;20062;-65
2022/09/21 08:43:52;;;;;;;6.97;3.83;;;12.60;99.90;;;;;;5066068;28;20021;-68
2022/09/21 08:46:26;;;;;;;5.72;3.10;;;12.60;99.90;;;;;;5062413;28;20041;-68
2022/09/21 08:49:02;;;;;;;5.50;3.28;;;12.50;99.90;;;;;;5050689;28;20127;-68
2022/09/21 08:51:37;;;;;;;5.43;3.17;;;12.60;99.90;;;;;;5049748;28;20033;-68
2022/09/21 08:54:11;;;;;;;7.85;4.30;;;12.70;99.90;;;;;;5073596;28;20041;-68
2022/09/21 08:56:37;;;;;;;9.52;5.13;;;12.80;99.90;;;;;;5055167;28;20032;-67
2022/09/21 08:59:07;;;;;;;14.13;6.85;;;12.70;99.90;;;;;;5065902;28;20534;-69
2022/09/21 09:01:39;;;;;;;6.25;3.75;;;12.60;99.90;;;;;;5067610;28;20471;-69
2022/09/21 09:04:35;;;;;;;8.20;4.13;;;12.50;99.90;;;;;;5073030;28;20031;-69
2022/09/21 09:07:06;;;;;;;6.57;3.03;;;12.30;99.90;;;;;;5061506;28;20123;-69
2022/09/21 09:09:32;;;;;;;6.75;3.58;;;12.40;99.90;;;;;;5080322;28;20048;-69
2022/09/21 09:12:04;;;;;;;5.57;3.35;;;12.50;99.90;;;;;;5072535;28;20040;-69
2022/09/21 09:14:39;;;;;;;8.05;5.25;;;12.40;99.90;;;;;;5070623;28;20020;-69
2022/09/21 09:17:26;;;;;;;6.95;4.30;;;12.30;99.90;;;;;;5073703;28;20043;-67
2022/09/21 09:20:04;;;;;;;9.35;5.00;;;12.40;99.90;;;;;;5069560;28;20028;-67
2022/09/21 09:22:39;;;;;;;7.07;3.78;;;12.20;99.90;;;;;;5071126;28;20352;-68
2022/09/21 09:25:19;;;;;;;6.22;4.30;;;12.10;99.90;;;;;;5071301;28;20531;-67
2022/09/21 09:27:47;;;;;;;7.55;3.85;;;12.10;99.90;;;;;;5071804;28;20048;-69
2022/09/21 09:30:15;;;;;;;8.05;4.43;;;12.10;99.90;;;;;;5071386;28;20028;-67
2022/09/21 09:33:03;;;;;;;8.20;4.55;;;12.20;99.90;;;;;;5071591;28;20486;-68
2022/09/21 09:35:34;;;;;;;8.32;5.32;;;12.10;99.90;;;;;;5072416;28;20033;-67
2022/09/21 09:38:25;;;;;;;6.53;4.43;;;12.10;99.90;;;;;;5072469;28;20107;-65
2022/09/21 09:41:06;;;;;;;10.65;6.55;;;12.20;99.90;;;;;;5070631;28;20028;-67
2022/09/21 09:43:41;;;;;;;11.70;4.88;;;12.40;99.90;;;;;;5067752;28;20391;-67
2022/09/21 09:46:06;;;;;;;8.57;3.92;;;12.30;99.90;;;;;;5071627;28;20056;-68
2022/09/21 09:48:41;;;;;;;8.60;4.65;;;12.40;99.90;;;;;;5071390;28;20067;-68
2022/09/21 09:51:11;;;;;;;9.27;6.00;;;12.50;99.90;;;;;;5072059;28;20112;-68
2022/09/21 09:53:37;;;;;;;12.25;7.00;;;12.50;99.90;;;;;;5068291;28;20483;-68
2022/09/21 09:56:03;;;;;;;6.05;3.55;;;12.50;99.90;;;;;;5068281;28;20017;-69
2022/09/21 09:59:05;;;;;;;7.50;3.92;;;12.40;99.90;;;;;;5072662;28;20033;-68
2022/09/21 10:01:41;;;;;;;5.97;4.05;;;12.30;99.90;;;;;;5051954;28;20039;-69
2022/09/21 10:04:12;;;;;;;8.90;5.10;;;12.30;99.90;;;;;;5072769;28;20088;-68
2022/09/21 10:06:38;;;;;;;11.93;6.53;;;12.30;99.90;;;;;;5072243;28;20094;-67
2022/09/21 10:09:24;;;;;;;13.32;6.97;;;12.30;99.90;;;;;;5072364;28;20155;-67
2022/09/21 10:11:52;;;;;;;11.00;5.38;;;12.40;99.90;;;;;;5072799;28;20100;-67
2022/09/21 10:14:22;;;;;;;14.52;7.97;;;12.40;99.90;;;;;;5072695;28;20017;-68
2022/09/21 10:16:51;;;;;;;14.80;7.90;;;12.50;99.90;;;;;;5072696;28;20107;-67
2022/09/21 10:19:24;;;;;;;13.15;7.20;;;12.60;99.90;;;;;;5072559;28;20025;-67
2022/09/21 10:21:56;;;;;;;10.68;6.20;;;12.60;99.90;;;;;;5072218;28;20379;-69
2022/09/21 10:24:23;;;;;;;11.90;7.25;;;12.50;99.90;;;;;;5072534;28;20411;-68
2022/09/21 10:26:55;;;;;;;8.48;4.90;;;12.50;99.90;;;;;;5072436;28;20078;-68
2022/09/21 10:29:21;;;;;;;14.60;8.40;;;12.50;99.90;;;;;;5071811;28;20041;-68
2022/09/21 10:32:22;;;;;;;14.88;7.85;;;12.50;99.90;;;;;;5071842;28;20081;-67
2022/09/21 10:35:09;;;;;;;10.18;5.85;;;12.50;99.90;;;;;;4978626;28;20038;-68
2022/09/21 10:37:40;;;;;;;10.80;5.05;;;12.60;99.90;;;;;;4969885;28;20058;-68
2022/09/21 10:40:23;;;;;;;17.30;8.32;;;12.80;99.90;;;;;;4971126;28;20037;-70
2022/09/21 10:42:53;;;;;;;10.82;4.60;;;13.00;99.90;;;;;;4976973;28;20502;-68
2022/09/21 10:45:21;;;;;;;16.42;8.57;;;13.10;99.90;;;;;;4988319;28;20034;-69
2022/09/21 10:48:11;;;;;;;9.00;5.13;;;13.40;99.90;;;;;;4990193;28;20053;-69
2022/09/21 10:50:49;;;;;;;7.90;4.35;;;13.60;99.90;;;;;;4990605;28;20038;-69
2022/09/21 10:53:28;;;;;;;7.07;4.55;;;13.80;99.90;;;;;;4976378;28;20048;-69
2022/09/21 10:56:07;;;;;;;10.77;6.32;;;13.90;99.90;;;;;;4976131;28;20044;-69
2022/09/21 10:58:34;;;;;;;6.68;4.65;;;14.00;99.90;;;;;;4990210;28;20480;-69
2022/09/21 11:01:12;;;;;;;7.07;3.60;;;13.90;99.90;;;;;;4988515;28;20022;-69
2022/09/21 11:04:02;;;;;;;4.68;3.40;;;13.90;99.90;;;;;;4979680;28;20026;-68
2022/09/21 11:07:11;;;;;;;12.10;5.30;;;13.60;99.90;;;;;;4978578;28;20078;-70
2022/09/21 11:09:46;;;;;;;15.85;7.50;;;13.50;99.90;;;;;;4984494;28;20053;-69
2022/09/21 11:12:33;;;;;;;13.30;7.25;;;13.70;99.90;;;;;;5061631;28;20040;-70
2022/09/21 11:15:21;;;;;;;9.48;6.32;;;13.90;99.90;;;;;;5052561;28;20036;-70
2022/09/21 11:17:56;;;;;;;7.93;3.92;;;14.00;99.90;;;;;;5071139;28;20151;-68
2022/09/21 11:20:45;;;;;;;12.50;5.18;;;14.00;99.90;;;;;;5069550;28;20040;-69
2022/09/21 11:23:38;;;;;;;9.23;4.43;;;13.90;99.90;;;;;;5070579;28;20044;-70
2022/09/21 11:26:22;;;;;;;;;;;14.20;99.90;;;;;;5058887;28;20405;-69
2022/09/21 11:29:14;;;;;;;8.13;4.88;;;14.00;99.90;;;;;;5058287;28;19916;-69
2022/09/21 11:31:48;;;;;;;5.93;3.92;;;14.00;99.90;;;;;;5071573;28;20029;-69
2022/09/21 11:34:43;;;;;;;9.55;4.93;;;14.00;99.90;;;;;;5071859;28;20028;-69
2022/09/21 11:37:14;;;;;;;6.63;3.75;;;13.90;99.90;;;;;;5061613;28;20468;-69
2022/09/21 11:39:58;;;;;;;10.20;5.32;;;13.90;99.90;;;;;;5061264;28;20107;-69
2022/09/21 11:42:45;;;;;;;7.72;4.20;;;13.90;99.90;;;;;;5066358;28;20384;-69
2022/09/21 11:45:35;;;;;;;11.82;4.45;;;13.80;99.90;;;;;;5070265;28;20030;-69
2022/09/21 11:48:21;;;;;;;8.82;4.57;;;13.70;99.90;;;;;;5068135;28;20024;-68
2022/09/21 11:51:08;;;;;;;6.80;4.15;;;13.70;99.90;;;;;;5054151;28;20032;-69
2022/09/21 11:53:45;;;;;;;7.20;4.28;;;13.60;99.90;;;;;;5073889;28;20063;-69
2022/09/21 11:56:14;;;;;;;10.73;5.70;;;13.60;99.90;;;;;;5075119;28;20031;-67
2022/09/21 11:58:51;;;;;;;11.98;6.25;;;13.70;99.90;;;;;;5072834;28;20471;-69
2022/09/21 12:01:17;;;;;;;11.07;7.07;;;13.80;99.90;;;;;;5073292;28;20028;-69
2022/09/21 12:04:19;;;;;;;10.00;5.40;;;14.10;99.90;;;;;;5074679;28;20029;-69
2022/09/21 12:07:21;;;;;;;11.43;6.70;;;14.30;99.90;;;;;;5048834;28;20423;-69
2022/09/21 12:10:04;;;;;;;9.50;6.10;;;14.40;99.90;;;;;;5073914;28;20037;-68
2022/09/21 12:13:04;;;;;;;11.13;5.80;;;14.50;99.90;;;;;;5074239;28;20016;-68
2022/09/21 12:15:37;;;;;;;8.07;5.47;;;14.70;99.90;;;;;;4999356;28;20922;-68
2022/09/21 12:18:11;;;;;;;7.32;5.40;;;14.50;99.90;;;;;;5013348;28;20105;-69
2022/09/21 12:20:46;;;;;;;9.57;5.72;;;14.70;99.90;;;;;;5000331;28;20065;-70
2022/09/21 12:23:19;;;;;;;10.32;6.15;;;14.80;99.90;;;;;;5009314;28;20034;-70
2022/09/21 12:25:52;;;;;;;9.30;5.93;;;14.70;99.90;;;;;;5009759;28;20045;-69
2022/09/21 12:28:29;;;;;;;8.98;6.43;;;14.60;99.90;;;;;;5026346;28;20045;-69
2022/09/21 12:31:02;;;;;;;9.50;5.78;;;14.60;99.90;;;;;;5000689;28;20037;-69
2022/09/21 12:33:45;;;;;;;9.88;6.00;;;14.70;99.90;;;;;;5012754;28;20080;-69
2022/09/21 12:36:41;;;;;;;9.65;5.47;;;14.60;99.90;;;;;;5012311;28;20052;-69
2022/09/21 12:39:17;;;;;;;10.60;5.65;;;14.70;99.90;;;;;;5012729;28;20077;-69
2022/09/21 12:42:01;;;;;;;10.02;6.63;;;14.80;99.90;;;;;;5012164;28;20582;-69
2022/09/21 12:44:51;;;;;;;7.80;5.00;;;14.80;99.90;;;;;;5010621;28;20141;-69
2022/09/21 12:47:23;;;;;;;9.00;5.45;;;14.80;99.90;;;;;;5011870;28;20025;-69
2022/09/21 12:49:53;;;;;;;10.88;5.85;;;15.00;99.90;;;;;;5011526;28;20049;-66
2022/09/21 12:52:23;;;;;;;8.75;5.68;;;15.20;99.90;;;;;;5054152;28;20456;-68
2022/09/21 12:55:20;;;;;;;7.68;5.00;;;15.20;99.90;;;;;;5068776;28;20115;-68
2022/09/21 12:57:52;;;;;;;9.27;6.00;;;14.90;99.90;;;;;;5066490;28;20067;-68
2022/09/21 13:00:21;;;;;;;9.90;6.37;;;15.00;99.90;;;;;;5073733;28;20024;-68
2022/09/21 13:03:09;;;;;;;10.50;6.13;;;14.90;99.90;;;;;;5073795;28;20032;-69
2022/09/21 13:06:12;;;;;;;6.03;4.05;;;14.90;99.90;;;;;;5073146;28;20509;-69
2022/09/21 13:08:42;;;;;;;7.13;4.15;;;15.20;99.90;;;;;;5059285;28;20037;-68
2022/09/21 13:11:09;;;;;;;9.23;5.65;;;15.20;99.90;;;;;;5072848;28;20024;-69
2022/09/21 13:13:50;;;;;;;11.18;6.32;;;15.50;99.90;;;;;;5069314;28;20027;-69
2022/09/21 13:16:30;;;;;;;11.38;5.65;;;15.80;99.90;;;;;;5072663;28;20027;-69
2022/09/21 13:19:20;;;;;;;6.43;2.97;;;15.90;99.90;;;;;;5072797;28;20035;-69
2022/09/21 13:21:45;;;;;;;5.70;3.13;;;16.00;99.90;;;;;;5055506;28;20421;-69
2022/09/21 13:24:27;;;;;;;3.90;2.80;;;16.00;99.90;;;;;;5073454;28;20020;-69